createdAt,value
2024-01-10T00:01:30.645Z,-4.57
2024-01-10T00:04:33.404Z,-4.43
2024-01-10T00:07:37.323Z,-4.58
2024-01-10T00:10:40.300Z,-4.42
2024-01-10T00:13:44.425Z,-4.49
2024-01-10T00:16:47.220Z,-4.64
2024-01-10T00:19:49.972Z,-4.61
2024-01-10T00:22:52.633Z,-4.88
2024-01-10T00:25:55.294Z,-4.89
2024-01-10T00:29:02.039Z,-4.75
2024-01-10T00:32:08.876Z,-4.93
2024-01-10T00:35:12.461Z,-4.76
2024-01-10T00:38:15.929Z,-4.88
2024-01-10T00:41:18.976Z,-4.79
2024-01-10T00:44:23.038Z,-4.83
2024-01-10T00:47:26.151Z,-4.86
2024-01-10T00:50:28.973Z,-4.51
2024-01-10T00:53:31.663Z,-4.74
2024-01-10T00:56:34.323Z,-4.71
2024-01-10T00:59:38.319Z,-4.66
2024-01-10T01:02:41.702Z,-4.78
2024-01-10T01:05:44.420Z,-4.74
2024-01-10T01:08:47.128Z,-4.66
2024-01-10T01:11:49.738Z,-4.58
2024-01-10T01:14:53.915Z,-4.63
2024-01-10T01:17:56.685Z,-4.63
2024-01-10T01:21:00.116Z,-4.83
2024-01-10T01:24:02.736Z,-4.80
2024-01-10T01:27:05.729Z,-5.03
2024-01-10T01:30:12.513Z,-4.77
2024-01-10T01:33:15.280Z,-4.68
2024-01-10T01:36:18.000Z,-4.88
2024-01-10T01:39:20.684Z,-4.91
2024-01-10T01:42:23.617Z,-4.72
2024-01-10T01:45:27.614Z,-4.68
2024-01-10T01:48:30.755Z,-4.84
2024-01-10T01:51:34.163Z,-4.94
2024-01-10T01:54:37.324Z,-5.02
2024-01-10T01:57:40.523Z,-4.91
2024-01-10T02:00:45.583Z,-4.76
2024-01-10T02:03:48.342Z,-5.06
2024-01-10T02:06:51.139Z,-5.02
2024-01-10T02:09:53.871Z,-4.96
2024-01-10T02:12:56.850Z,-4.89
2024-01-10T02:16:01.011Z,-5.12
2024-01-10T02:19:03.768Z,-4.94
2024-01-10T02:22:06.436Z,-4.94
2024-01-10T02:25:11.290Z,-4.97
2024-01-10T02:28:13.980Z,-4.92
2024-01-10T02:31:16.659Z,-4.93
2024-01-10T02:34:19.442Z,-5.03
2024-01-10T02:37:22.107Z,-4.90
2024-01-10T02:40:26.199Z,-4.98
2024-01-10T02:43:29.006Z,-4.83
2024-01-10T02:46:31.639Z,-4.99
2024-01-10T02:49:34.324Z,-5.30
2024-01-10T02:52:37.019Z,-5.11
2024-01-10T02:55:41.281Z,-5.02
2024-01-10T02:58:43.955Z,-5.08
2024-01-10T03:01:46.646Z,-5.04
2024-01-10T03:04:49.903Z,-5.05
2024-01-10T03:07:52.612Z,-5.20
2024-01-10T03:10:56.665Z,-5.36
2024-01-10T03:14:05.006Z,-5.36
2024-01-10T03:17:07.743Z,-5.10
2024-01-10T03:20:11.231Z,-5.14
2024-01-10T03:23:13.947Z,-5.08
2024-01-10T03:26:18.117Z,-5.17
2024-01-10T03:29:20.886Z,-5.27
2024-01-10T03:32:23.625Z,-5.10
2024-01-10T03:35:26.318Z,-5.19
2024-01-10T03:38:28.983Z,-5.42
2024-01-10T03:41:32.976Z,-5.29
2024-01-10T03:44:35.807Z,-5.17
2024-01-10T03:47:38.515Z,-5.06
2024-01-10T03:50:41.165Z,-4.92
2024-01-10T03:53:43.993Z,-5.15
2024-01-10T03:56:47.981Z,-4.99
2024-01-10T03:59:50.631Z,-5.00
2024-01-10T04:02:53.764Z,-4.93
2024-01-10T04:05:56.429Z,-4.84
2024-01-10T04:08:59.085Z,-4.76
2024-01-10T04:12:03.052Z,-4.95
2024-01-10T04:15:06.822Z,-4.82
2024-01-10T04:18:10.719Z,-4.74
2024-01-10T04:21:14.402Z,-4.99
2024-01-10T04:24:17.044Z,-4.69
2024-01-10T04:27:21.050Z,-4.56
2024-01-10T04:30:23.699Z,-4.44
2024-01-10T04:33:26.497Z,-4.40
2024-01-10T04:36:29.270Z,-4.40
2024-01-10T04:39:31.879Z,-4.08
2024-01-10T04:42:35.886Z,-3.95
2024-01-10T04:45:38.719Z,-3.92
2024-01-10T04:48:41.410Z,-3.76
2024-01-10T04:51:44.104Z,-3.76
2024-01-10T04:54:46.742Z,-3.87
2024-01-10T04:57:50.737Z,-4.13
2024-01-10T05:00:53.613Z,-3.61
2024-01-10T05:03:56.592Z,-3.70
2024-01-10T05:06:59.240Z,-3.39
2024-01-10T05:10:01.875Z,-3.41
2024-01-10T05:13:06.164Z,-3.33
2024-01-10T05:16:09.076Z,-3.29
2024-01-10T05:19:11.782Z,-3.21
2024-01-10T05:22:14.928Z,-3.12
2024-01-10T05:25:19.367Z,-3.20
2024-01-10T05:28:23.438Z,-3.12
2024-01-10T05:31:26.087Z,-2.96
2024-01-10T05:34:29.216Z,-2.88
2024-01-10T05:37:31.858Z,-2.87
2024-01-10T05:40:34.708Z,-3.16
2024-01-10T05:43:38.773Z,-2.87
2024-01-10T05:46:41.997Z,-2.73
2024-01-10T05:49:44.857Z,-2.71
2024-01-10T05:52:49.829Z,-2.62
2024-01-10T05:55:53.219Z,-2.47
2024-01-10T05:58:57.361Z,-2.44
2024-01-10T06:02:00.562Z,-2.41
2024-01-10T06:05:07.477Z,-2.32
2024-01-10T06:08:10.356Z,-2.26
2024-01-10T06:11:13.258Z,-2.08
2024-01-10T06:14:17.422Z,-2.17
2024-01-10T06:17:20.241Z,-2.08
2024-01-10T06:20:22.934Z,-2.11
2024-01-10T06:23:25.785Z,-2.05
2024-01-10T06:26:28.519Z,-2.02
2024-01-10T06:29:32.617Z,-1.87
2024-01-10T06:32:36.113Z,-1.97
2024-01-10T06:35:38.850Z,-1.94
2024-01-10T06:38:41.916Z,-2.00
2024-01-10T06:41:45.020Z,-1.94
2024-01-10T06:44:49.025Z,-1.80
2024-01-10T06:47:51.972Z,-1.71
2024-01-10T06:50:54.664Z,-1.66
2024-01-10T06:54:03.855Z,-1.79
2024-01-10T06:57:06.708Z,-1.72
2024-01-10T07:00:12.302Z,-1.64
2024-01-10T07:03:15.200Z,-1.77
2024-01-10T07:06:17.927Z,-1.60
2024-01-10T07:09:21.098Z,-1.69
2024-01-10T07:12:23.909Z,-1.67
2024-01-10T07:15:28.053Z,-1.69
2024-01-10T07:18:30.815Z,-1.50
2024-01-10T07:21:33.552Z,-1.59
2024-01-10T07:24:36.353Z,-1.63
2024-01-10T07:27:39.309Z,-1.40
2024-01-10T07:30:45.252Z,-1.67
2024-01-10T07:33:47.948Z,-1.46
2024-01-10T07:36:50.618Z,-1.52
2024-01-10T07:39:54.110Z,-1.47
2024-01-10T07:42:56.880Z,-1.48
2024-01-10T07:46:02.232Z,-1.51
2024-01-10T07:49:05.250Z,-1.64
2024-01-10T07:52:07.983Z,-1.76
2024-01-10T07:55:11.504Z,-1.64
2024-01-10T07:58:14.149Z,-1.42
2024-01-10T08:01:18.226Z,-1.62
2024-01-10T08:04:20.865Z,-1.58
2024-01-10T08:07:23.648Z,-1.65
2024-01-10T08:10:28.173Z,-1.51
2024-01-10T08:13:31.346Z,-1.34
2024-01-10T08:16:36.182Z,-1.27
2024-01-10T08:19:38.859Z,-1.70
2024-01-10T08:22:41.868Z,-1.43
2024-01-10T08:25:45.265Z,-1.56
2024-01-10T08:28:47.971Z,-1.74
2024-01-10T08:31:52.032Z,-1.78
2024-01-10T08:34:54.816Z,-1.36
2024-01-10T08:37:57.567Z,-1.76
2024-01-10T08:41:00.333Z,-1.33
2024-01-10T08:44:03.713Z,-1.40
2024-01-10T08:47:08.052Z,-2.01
2024-01-10T08:50:13.356Z,-1.44
2024-01-10T08:53:17.219Z,-1.38
2024-01-10T08:56:20.932Z,-1.51
2024-01-10T08:59:23.728Z,-1.82
2024-01-10T09:02:28.741Z,-1.72
2024-01-10T09:05:31.706Z,-1.39
2024-01-10T09:08:34.638Z,-1.24
2024-01-10T09:11:40.088Z,-1.59
2024-01-10T09:14:44.407Z,-1.27
2024-01-10T09:17:48.429Z,-1.56
2024-01-10T09:20:51.115Z,-1.56
2024-01-10T09:23:54.149Z,-1.61
2024-01-10T09:26:57.055Z,-1.54
2024-01-10T09:29:59.715Z,-1.39
2024-01-10T09:33:03.964Z,-1.19
2024-01-10T09:36:07.470Z,-1.19
2024-01-10T09:39:14.349Z,-0.99
2024-01-10T09:42:17.343Z,-1.24
2024-01-10T09:45:21.054Z,-1.24
2024-01-10T09:48:25.237Z,-1.16
2024-01-10T09:51:30.593Z,-1.28
2024-01-10T09:54:33.559Z,-1.29
2024-01-10T09:57:37.641Z,-1.26
2024-01-10T10:00:42.734Z,-1.28
2024-01-10T10:03:48.221Z,-0.96
2024-01-10T10:07:02.401Z,-0.73
2024-01-10T10:10:06.322Z,-0.55
2024-01-10T10:13:09.920Z,-0.69
2024-01-10T10:16:13.988Z,-0.87
2024-01-10T10:19:34.164Z,-1.13
2024-01-10T10:23:00.768Z,-1.01
2024-01-10T10:26:15.038Z,-1.15
2024-01-10T10:29:19.851Z,-1.07
2024-01-10T10:32:23.001Z,-1.00
2024-01-10T10:35:36.803Z,-1.03
2024-01-10T10:38:42.571Z,-0.81
2024-01-10T10:41:45.337Z,-0.73
2024-01-10T10:44:51.170Z,-0.57
2024-01-10T10:48:00.347Z,-0.37
2024-01-10T10:51:08.642Z,-0.97
2024-01-10T10:54:12.172Z,-0.58
2024-01-10T10:57:16.557Z,-0.51
2024-01-10T11:00:21.226Z,-0.57
2024-01-10T11:03:26.525Z,-0.58
2024-01-10T11:06:31.182Z,-0.83
2024-01-10T11:09:35.025Z,-0.52
2024-01-10T11:12:56.909Z,-0.48
2024-01-10T11:16:27.078Z,-0.04
2024-01-10T11:19:56.821Z,0.75
2024-01-10T11:23:31.936Z,1.37
2024-01-10T11:26:36.304Z,2.19
2024-01-10T11:29:40.896Z,1.74
2024-01-10T11:32:46.002Z,1.46
2024-01-10T11:36:11.840Z,0.93
2024-01-10T11:39:16.134Z,0.48
2024-01-10T11:42:24.513Z,0.32
2024-01-10T11:45:39.862Z,0.08
2024-01-10T11:48:44.500Z,0.00
2024-01-10T11:51:49.081Z,-0.33
2024-01-10T11:54:53.248Z,-0.09
2024-01-10T11:58:10.772Z,-0.13
2024-01-10T12:01:13.734Z,-0.23
2024-01-10T12:04:23.655Z,-0.21
2024-01-10T12:07:29.823Z,0.07
2024-01-10T12:10:37.298Z,0.17
2024-01-10T12:13:39.975Z,0.32
2024-01-10T12:16:42.968Z,0.36
2024-01-10T12:19:47.105Z,0.09
2024-01-10T12:22:50.421Z,-0.22
2024-01-10T12:25:54.454Z,0.30
2024-01-10T12:28:58.097Z,0.31
2024-01-10T12:32:01.797Z,0.34
2024-01-10T12:35:07.035Z,0.39
2024-01-10T12:38:10.033Z,0.61
2024-01-10T12:41:14.136Z,0.75
2024-01-10T12:44:16.827Z,0.73
2024-01-10T12:47:23.793Z,0.56
2024-01-10T12:50:27.175Z,0.48
2024-01-10T12:53:30.587Z,0.60
2024-01-10T12:56:34.902Z,0.36
2024-01-10T12:59:37.630Z,0.41
2024-01-10T13:02:41.230Z,0.51
2024-01-10T13:05:45.048Z,0.57
2024-01-10T13:08:47.980Z,0.52
2024-01-10T13:11:52.075Z,0.40
2024-01-10T13:14:55.545Z,1.01
2024-01-10T13:17:59.103Z,1.09
2024-01-10T13:21:01.905Z,0.89
2024-01-10T13:24:05.159Z,0.84
2024-01-10T13:27:10.710Z,0.72
2024-01-10T13:30:13.853Z,0.38
2024-01-10T13:33:16.759Z,0.29
2024-01-10T13:36:20.333Z,0.34
2024-01-10T13:39:22.981Z,0.56
2024-01-10T13:42:26.986Z,0.23
2024-01-10T13:45:29.602Z,0.29
2024-01-10T13:48:32.296Z,0.47
2024-01-10T13:51:35.060Z,0.48
2024-01-10T13:54:38.441Z,0.48
2024-01-10T13:57:42.733Z,0.29
2024-01-10T14:00:45.428Z,0.30
2024-01-10T14:03:48.186Z,0.01
2024-01-10T14:06:51.628Z,-0.12
2024-01-10T14:09:55.413Z,0.13
2024-01-10T14:12:59.397Z,-0.31
2024-01-10T14:16:02.239Z,-0.05
2024-01-10T14:19:05.294Z,-0.20
2024-01-10T14:22:16.937Z,-0.36
2024-01-10T14:25:25.115Z,-0.04
2024-01-10T14:28:29.116Z,-0.02
2024-01-10T14:31:41.179Z,-0.13
2024-01-10T14:34:53.600Z,-0.22
2024-01-10T14:37:56.420Z,-0.24
2024-01-10T14:40:59.681Z,-0.24
2024-01-10T14:44:04.819Z,-0.20
2024-01-10T14:47:11.370Z,-0.30
2024-01-10T14:50:15.328Z,-0.50
2024-01-10T14:53:18.020Z,-0.55
2024-01-10T14:56:20.713Z,-0.43
2024-01-10T14:59:36.563Z,-0.68
2024-01-10T15:02:43.645Z,-0.28
2024-01-10T15:05:46.403Z,-0.37
2024-01-10T15:08:49.304Z,-0.50
2024-01-10T15:11:52.203Z,-0.32
2024-01-10T15:14:56.199Z,-0.46
2024-01-10T15:17:58.849Z,-0.61
2024-01-10T15:21:01.554Z,-0.66
2024-01-10T15:24:04.828Z,-0.36
2024-01-10T15:27:10.665Z,-0.88
2024-01-10T15:30:17.358Z,-1.02
2024-01-10T15:33:20.521Z,-0.58
2024-01-10T15:36:23.224Z,-0.58
2024-01-10T15:39:26.430Z,-0.40
2024-01-10T15:42:29.638Z,-0.97
2024-01-10T15:45:34.839Z,-0.83
2024-01-10T15:48:37.591Z,-0.86
2024-01-10T15:51:40.280Z,-0.61
2024-01-10T15:54:42.930Z,-0.47
2024-01-10T15:57:47.368Z,-0.42
2024-01-10T16:00:51.542Z,-0.46
2024-01-10T16:03:54.657Z,-0.51
2024-01-10T16:06:57.374Z,-0.32
2024-01-10T16:10:00.147Z,-0.49
2024-01-10T16:13:04.105Z,-0.41
2024-01-10T16:16:10.084Z,-0.48
2024-01-10T16:19:13.150Z,-0.38
2024-01-10T16:22:16.086Z,-0.41
2024-01-10T16:25:18.748Z,-0.44
2024-01-10T16:28:21.403Z,-0.46
2024-01-10T16:31:25.677Z,-0.72
2024-01-10T16:34:29.769Z,-0.50
2024-01-10T16:37:32.817Z,-0.36
2024-01-10T16:40:35.466Z,-0.61
2024-01-10T16:43:38.110Z,-0.39
2024-01-10T16:46:42.118Z,-0.30
2024-01-10T16:49:44.934Z,-0.84
2024-01-10T16:52:48.566Z,-0.63
2024-01-10T16:55:52.517Z,-0.38
2024-01-10T16:58:58.403Z,-0.36
2024-01-10T17:02:04.812Z,-0.29
2024-01-10T17:05:09.685Z,-0.29
2024-01-10T17:08:12.486Z,-0.45
2024-01-10T17:11:17.703Z,-0.33
2024-01-10T17:14:20.763Z,-0.46
2024-01-10T17:17:24.960Z,-0.46
2024-01-10T17:20:28.302Z,-0.48
2024-01-10T17:23:31.083Z,-0.40
2024-01-10T17:26:34.012Z,-0.34
2024-01-10T17:29:36.714Z,-0.21
2024-01-10T17:32:40.872Z,-0.32
2024-01-10T17:35:43.899Z,-0.50
2024-01-10T17:38:47.034Z,-0.68
2024-01-10T17:41:49.840Z,-0.36
2024-01-10T17:44:52.477Z,-0.52
2024-01-10T17:47:56.872Z,-0.65
2024-01-10T17:50:59.594Z,-0.44
2024-01-10T17:54:02.317Z,-0.47
2024-01-10T17:57:05.336Z,-0.38
2024-01-10T18:00:10.573Z,-0.49
2024-01-10T18:03:15.119Z,-0.52
2024-01-10T18:06:17.876Z,-0.45
2024-01-10T18:09:20.539Z,-0.75
2024-01-10T18:12:23.476Z,-0.62
2024-01-10T18:15:26.093Z,-0.89
2024-01-10T18:18:33.142Z,-0.54
2024-01-10T18:21:35.871Z,-0.55
2024-01-10T18:24:38.601Z,-0.68
2024-01-10T18:27:41.264Z,-0.62
2024-01-10T18:30:44.386Z,-0.72
2024-01-10T18:33:48.976Z,-0.69
2024-01-10T18:36:51.766Z,-0.83
2024-01-10T18:39:54.643Z,-0.95
2024-01-10T18:42:57.409Z,-0.56
2024-01-10T18:46:00.080Z,-0.53
2024-01-10T18:49:06.539Z,-0.47
2024-01-10T18:52:09.887Z,-0.63
2024-01-10T18:55:12.598Z,-0.74
2024-01-10T18:58:15.714Z,-0.62
2024-01-10T19:01:18.685Z,-0.67
2024-01-10T19:04:22.857Z,-0.63
2024-01-10T19:07:25.545Z,-0.59
2024-01-10T19:10:28.185Z,-0.55
2024-01-10T19:13:39.454Z,-0.44
2024-01-10T19:16:44.278Z,-0.53
2024-01-10T19:19:48.380Z,-0.48
2024-01-10T19:22:51.164Z,-0.44
2024-01-10T19:25:54.190Z,-0.56
2024-01-10T19:28:56.934Z,-0.97
2024-01-10T19:31:59.648Z,-0.57
2024-01-10T19:35:03.720Z,-0.40
2024-01-10T19:38:06.594Z,-0.41
2024-01-10T19:41:09.351Z,-0.55
2024-01-10T19:44:12.044Z,-0.61
2024-01-10T19:47:15.140Z,-0.39
2024-01-10T19:50:19.284Z,-0.32
2024-01-10T19:53:21.990Z,-0.45
2024-01-10T19:56:25.192Z,-0.42
2024-01-10T19:59:27.924Z,-0.49
2024-01-10T20:02:30.607Z,-0.72
2024-01-10T20:05:35.051Z,-0.69
2024-01-10T20:08:37.824Z,-0.58
2024-01-10T20:11:40.516Z,-0.51
2024-01-10T20:14:43.218Z,-0.39
2024-01-10T20:17:46.637Z,-0.39
2024-01-10T20:20:50.861Z,-0.36
2024-01-10T20:23:53.646Z,-0.44
2024-01-10T20:26:56.285Z,-0.41
2024-01-10T20:29:58.932Z,-0.58
2024-01-10T20:33:02.558Z,-0.44
2024-01-10T20:36:07.320Z,-0.38
2024-01-10T20:39:09.959Z,-0.52
2024-01-10T20:42:13.633Z,-0.52
2024-01-10T20:45:18.506Z,-0.47
2024-01-10T20:48:21.238Z,-0.46
2024-01-10T20:51:25.410Z,-0.40
2024-01-10T20:54:28.034Z,-0.45
2024-01-10T20:57:31.080Z,-0.27
2024-01-10T21:00:36.818Z,-0.37
2024-01-10T21:03:39.561Z,-0.22
2024-01-10T21:06:48.547Z,-0.44
2024-01-10T21:09:57.699Z,-0.60
2024-01-10T21:13:00.363Z,-0.46
2024-01-10T21:16:03.950Z,-0.36
2024-01-10T21:19:06.748Z,-0.37
2024-01-10T21:22:13.679Z,-0.57
2024-01-10T21:25:16.377Z,-0.49
2024-01-10T21:28:19.024Z,-0.45
2024-01-10T21:31:21.675Z,-0.44
2024-01-10T21:34:24.508Z,-0.41
2024-01-10T21:37:28.732Z,-0.20
2024-01-10T21:40:31.364Z,-0.19
2024-01-10T21:43:34.026Z,-0.54
2024-01-10T21:46:36.671Z,-0.50
2024-01-10T21:49:39.334Z,-0.45
2024-01-10T21:52:43.338Z,-1.00
2024-01-10T21:55:46.061Z,-0.56
2024-01-10T21:58:49.324Z,-0.58
2024-01-10T22:01:52.008Z,-0.49
2024-01-10T22:04:54.871Z,-0.40
2024-01-10T22:07:59.352Z,-0.64
2024-01-10T22:11:02.081Z,-0.41
2024-01-10T22:14:04.837Z,-0.23
2024-01-10T22:17:07.835Z,-0.22
2024-01-10T22:20:12.723Z,-0.34
2024-01-10T22:23:16.842Z,-0.28
2024-01-10T22:26:19.628Z,-0.30
2024-01-10T22:29:24.208Z,-0.33
2024-01-10T22:32:27.075Z,-0.04
2024-01-10T22:35:30.176Z,-0.15
2024-01-10T22:38:34.533Z,-0.31
2024-01-10T22:41:37.280Z,-0.10
2024-01-10T22:44:40.256Z,-0.22
2024-01-10T22:47:43.047Z,-0.28
2024-01-10T22:50:45.856Z,-0.49
2024-01-10T22:53:49.983Z,-0.34
2024-01-10T22:56:52.689Z,-0.30
2024-01-10T22:59:55.328Z,-0.34
2024-01-10T23:02:58.815Z,-0.24
2024-01-10T23:06:01.869Z,-0.18
2024-01-10T23:09:06.678Z,-0.24
2024-01-10T23:12:10.124Z,-0.27
2024-01-10T23:15:12.892Z,-0.46
2024-01-10T23:18:15.619Z,-0.43
2024-01-10T23:21:19.398Z,-0.13
2024-01-10T23:24:23.734Z,-0.12
2024-01-10T23:27:26.351Z,0.07
2024-01-10T23:30:29.053Z,-0.17
2024-01-10T23:33:31.766Z,-0.13
2024-01-10T23:36:34.449Z,-0.06
2024-01-10T23:39:38.573Z,-0.10
2024-01-10T23:42:41.222Z,-0.09
2024-01-10T23:45:46.408Z,-0.07
2024-01-10T23:48:50.417Z,-0.21
2024-01-10T23:51:53.552Z,-0.10
2024-01-10T23:54:57.791Z,0.05
2024-01-10T23:58:00.480Z,0.07
